createdAt,value
2023-04-21T00:01:55.130Z,10.20
2023-04-21T00:04:58.382Z,10.20
2023-04-21T00:08:02.548Z,10.20
2023-04-21T00:11:05.454Z,10.20
2023-04-21T00:14:08.205Z,10.20
2023-04-21T00:17:10.968Z,10.20
2023-04-21T00:20:14.484Z,10.20
2023-04-21T00:23:18.606Z,10.10
2023-04-21T00:26:21.396Z,10.10
2023-04-21T00:29:24.124Z,10.20
2023-04-21T00:32:26.943Z,10.10
2023-04-21T00:35:30.809Z,10.10
2023-04-21T00:38:34.953Z,10.20
2023-04-21T00:41:39.813Z,10.20
2023-04-21T00:44:42.560Z,10.30
2023-04-21T00:47:45.393Z,10.30
2023-04-21T00:50:48.196Z,10.30
2023-04-21T00:53:52.599Z,10.30
2023-04-21T00:56:58.387Z,10.30
2023-04-21T01:00:01.189Z,10.30
2023-04-21T01:03:04.265Z,10.30
2023-04-21T01:06:07.964Z,10.30
2023-04-21T01:09:12.640Z,10.30
2023-04-21T01:12:15.458Z,10.30
2023-04-21T01:15:19.077Z,10.30
2023-04-21T01:18:22.046Z,10.20
2023-04-21T01:21:24.951Z,10.30
2023-04-21T01:24:39.120Z,10.30
2023-04-21T01:27:41.964Z,10.30
2023-04-21T01:30:44.743Z,10.30
2023-04-21T01:33:47.533Z,10.20
2023-04-21T01:36:50.465Z,10.30
2023-04-21T01:39:57.857Z,10.30
2023-04-21T01:43:00.644Z,10.30
2023-04-21T01:46:03.655Z,10.30
2023-04-21T01:49:06.452Z,10.30
2023-04-21T01:52:10.264Z,10.30
2023-04-21T01:55:14.766Z,10.20
2023-04-21T01:58:17.490Z,10.30
2023-04-21T02:01:20.247Z,10.30
2023-04-21T02:04:23.251Z,10.30
2023-04-21T02:07:26.238Z,10.30
2023-04-21T02:10:30.810Z,10.30
2023-04-21T02:13:33.589Z,10.40
2023-04-21T02:16:36.404Z,10.40
2023-04-21T02:19:39.272Z,10.40
2023-04-21T02:22:42.126Z,10.30
2023-04-21T02:25:46.250Z,10.30
2023-04-21T02:28:49.638Z,10.30
2023-04-21T02:32:01.199Z,10.40
2023-04-21T02:35:08.741Z,10.30
2023-04-21T02:38:11.488Z,10.40
2023-04-21T02:41:15.638Z,10.40
2023-04-21T02:44:18.459Z,10.40
2023-04-21T02:47:21.391Z,10.40
2023-04-21T02:50:24.338Z,10.40
2023-04-21T02:53:27.245Z,10.30
2023-04-21T02:56:31.817Z,10.40
2023-04-21T02:59:34.623Z,10.30
2023-04-21T03:02:37.535Z,10.30
2023-04-21T03:05:40.387Z,10.40
2023-04-21T03:08:43.245Z,10.40
2023-04-21T03:11:47.349Z,10.40
2023-04-21T03:14:50.130Z,10.40
2023-04-21T03:17:52.929Z,10.40
2023-04-21T03:21:01.426Z,10.40
2023-04-21T03:24:04.454Z,10.30
2023-04-21T03:27:10.450Z,10.20
2023-04-21T03:30:14.233Z,10.30
2023-04-21T03:33:17.032Z,10.30
2023-04-21T03:36:19.839Z,10.30
2023-04-21T03:39:22.864Z,10.30
2023-04-21T03:42:27.118Z,10.30
2023-04-21T03:45:29.878Z,10.40
2023-04-21T03:48:33.136Z,10.30
2023-04-21T03:51:36.021Z,10.30
2023-04-21T03:54:38.793Z,10.40
2023-04-21T03:57:43.803Z,10.30
2023-04-21T04:00:46.562Z,10.40
2023-04-21T04:03:49.448Z,10.30
2023-04-21T04:06:52.464Z,10.30
2023-04-21T04:09:55.322Z,10.30
2023-04-21T04:12:59.437Z,10.30
2023-04-21T04:16:02.267Z,10.30
2023-04-21T04:19:05.107Z,10.30
2023-04-21T04:22:07.970Z,10.30
2023-04-21T04:25:12.759Z,10.30
2023-04-21T04:28:16.864Z,10.30
2023-04-21T04:31:19.746Z,10.30
2023-04-21T04:34:24.453Z,10.40
2023-04-21T04:37:27.268Z,10.30
2023-04-21T04:40:30.409Z,10.30
2023-04-21T04:43:36.893Z,10.30
2023-04-21T04:46:40.752Z,10.20
2023-04-21T04:49:43.578Z,10.30
2023-04-21T04:52:47.425Z,10.30
2023-04-21T04:55:50.264Z,10.20
2023-04-21T04:58:54.363Z,10.20
2023-04-21T05:01:57.301Z,10.30
2023-04-21T05:05:00.223Z,10.20
2023-04-21T05:08:03.102Z,10.20
2023-04-21T05:11:06.744Z,10.20
2023-04-21T05:14:10.862Z,10.20
2023-04-21T05:17:13.624Z,10.20
2023-04-21T05:20:17.176Z,10.20
2023-04-21T05:23:20.090Z,10.20
2023-04-21T05:26:22.920Z,10.20
2023-04-21T05:29:27.041Z,10.20
2023-04-21T05:32:30.319Z,10.20
2023-04-21T05:35:33.888Z,10.20
2023-04-21T05:38:38.232Z,10.30
2023-04-21T05:41:40.994Z,10.30
2023-04-21T05:44:45.402Z,10.30
2023-04-21T05:47:48.289Z,10.30
2023-04-21T05:50:51.107Z,10.30
2023-04-21T05:53:53.883Z,10.30
2023-04-21T05:56:56.953Z,10.30
2023-04-21T06:00:01.077Z,10.40
2023-04-21T06:03:04.439Z,10.40
2023-04-21T06:06:09.125Z,10.50
2023-04-21T06:09:11.908Z,10.50
2023-04-21T06:12:14.666Z,10.50
2023-04-21T06:15:18.897Z,10.60
2023-04-21T06:18:21.676Z,10.50
2023-04-21T06:21:24.462Z,10.60
2023-04-21T06:24:27.226Z,10.70
2023-04-21T06:27:29.992Z,10.70
2023-04-21T06:30:34.179Z,10.80
2023-04-21T06:33:37.029Z,10.80
2023-04-21T06:36:39.798Z,10.80
2023-04-21T06:39:42.546Z,10.90
2023-04-21T06:42:45.456Z,10.90
2023-04-21T06:45:49.597Z,10.90
2023-04-21T06:48:52.355Z,11.00
2023-04-21T06:51:55.562Z,11.20
2023-04-21T06:54:58.365Z,11.40
2023-04-21T06:58:01.215Z,11.50
2023-04-21T07:01:05.417Z,11.50
2023-04-21T07:04:08.372Z,11.60
2023-04-21T07:07:11.283Z,11.80
2023-04-21T07:10:19.056Z,11.80
2023-04-21T07:13:22.068Z,11.90
2023-04-21T07:16:26.255Z,12.00
2023-04-21T07:19:29.058Z,12.00
2023-04-21T07:22:31.870Z,12.00
2023-04-21T07:25:34.662Z,12.00
2023-04-21T07:28:38.107Z,12.00
2023-04-21T07:31:42.375Z,12.00
2023-04-21T07:34:47.038Z,12.10
2023-04-21T07:37:49.820Z,12.10
2023-04-21T07:40:52.698Z,12.10
2023-04-21T07:43:55.514Z,12.10
2023-04-21T07:46:59.613Z,12.10
2023-04-21T07:50:02.618Z,12.10
2023-04-21T07:53:05.460Z,12.20
2023-04-21T07:56:08.752Z,12.20
2023-04-21T07:59:11.530Z,12.30
2023-04-21T08:02:16.063Z,12.40
2023-04-21T08:05:19.224Z,12.40
2023-04-21T08:08:22.345Z,12.50
2023-04-21T08:11:25.108Z,12.60
2023-04-21T08:14:28.349Z,12.60
2023-04-21T08:17:32.677Z,12.70
2023-04-21T08:20:35.750Z,12.80
2023-04-21T08:23:38.621Z,12.80
2023-04-21T08:26:41.484Z,12.90
2023-04-21T08:29:44.410Z,13.00
2023-04-21T08:32:48.553Z,13.20
2023-04-21T08:36:02.301Z,13.30
2023-04-21T08:39:08.653Z,13.40
2023-04-21T08:42:11.464Z,13.50
2023-04-21T08:45:14.293Z,13.50
2023-04-21T08:48:21.612Z,13.40
2023-04-21T08:51:25.270Z,13.40
2023-04-21T08:54:30.001Z,13.50
2023-04-21T08:57:32.963Z,13.50
2023-04-21T09:00:35.789Z,13.60
2023-04-21T09:03:40.065Z,13.70
2023-04-21T09:06:44.077Z,13.80
2023-04-21T09:09:53.634Z,14.00
2023-04-21T09:12:56.445Z,14.20
2023-04-21T09:16:00.059Z,14.50
2023-04-21T09:19:04.601Z,14.60
2023-04-21T09:22:07.645Z,14.70
2023-04-21T09:25:10.851Z,14.70
2023-04-21T09:28:15.373Z,14.80
2023-04-21T09:31:20.317Z,14.70
2023-04-21T09:34:25.945Z,14.80
2023-04-21T09:37:33.537Z,14.90
2023-04-21T09:40:36.370Z,15.10
2023-04-21T09:43:39.163Z,15.10
2023-04-21T09:46:44.762Z,15.20
2023-04-21T09:49:52.744Z,15.20
2023-04-21T09:52:57.377Z,15.40
2023-04-21T09:56:00.762Z,15.80
2023-04-21T09:59:08.223Z,16.00
2023-04-21T10:02:13.410Z,16.10
2023-04-21T10:05:17.959Z,16.30
2023-04-21T10:08:21.847Z,16.30
2023-04-21T10:11:25.048Z,16.20
2023-04-21T10:14:27.892Z,16.20
2023-04-21T10:17:31.684Z,16.50
2023-04-21T10:20:52.296Z,16.80
2023-04-21T10:23:55.280Z,17.00
2023-04-21T10:27:01.642Z,16.90
2023-04-21T10:30:20.096Z,17.00
2023-04-21T10:33:24.982Z,17.30
2023-04-21T10:36:29.109Z,17.60
2023-04-21T10:39:35.817Z,17.80
2023-04-21T10:42:38.678Z,17.90
2023-04-21T10:45:41.537Z,18.10
2023-04-21T10:48:53.350Z,18.30
2023-04-21T10:52:12.237Z,18.60
2023-04-21T10:55:16.117Z,18.60
2023-04-21T10:58:19.482Z,18.40
2023-04-21T11:01:22.378Z,18.50
2023-04-21T11:04:25.875Z,18.60
2023-04-21T11:07:31.404Z,18.90
2023-04-21T11:10:44.065Z,19.10
2023-04-21T11:13:47.676Z,19.20
2023-04-21T11:16:51.110Z,19.40
2023-04-21T11:19:55.323Z,19.70
2023-04-21T11:22:59.448Z,19.90
2023-04-21T11:26:02.265Z,20.00
2023-04-21T11:29:06.362Z,20.10
2023-04-21T11:32:10.081Z,20.40
2023-04-21T11:35:12.884Z,20.50
2023-04-21T11:38:18.612Z,20.70
2023-04-21T11:41:25.074Z,20.70
2023-04-21T11:44:36.030Z,20.90
2023-04-21T11:47:39.976Z,20.90
2023-04-21T11:50:48.507Z,21.00
2023-04-21T11:53:52.771Z,21.20
2023-04-21T11:56:55.864Z,21.30
2023-04-21T12:00:00.423Z,21.60
2023-04-21T12:03:03.308Z,21.70
2023-04-21T12:06:07.489Z,21.90
2023-04-21T12:09:18.460Z,22.10
2023-04-21T12:12:22.944Z,22.30
2023-04-21T12:15:25.899Z,22.40
2023-04-21T12:18:29.188Z,22.50
2023-04-21T12:21:31.972Z,22.60
2023-04-21T12:24:36.834Z,22.80
2023-04-21T12:27:48.316Z,22.80
2023-04-21T12:30:51.090Z,22.90
2023-04-21T12:33:53.940Z,23.10
2023-04-21T12:36:56.949Z,23.30
2023-04-21T12:40:01.081Z,23.30
2023-04-21T12:43:03.857Z,23.40
2023-04-21T12:46:06.679Z,23.50
2023-04-21T12:49:11.063Z,23.60
2023-04-21T12:52:13.916Z,23.70
2023-04-21T12:55:18.309Z,23.90
2023-04-21T12:58:21.407Z,23.70
2023-04-21T13:01:24.270Z,23.90
2023-04-21T13:04:27.361Z,24.00
2023-04-21T13:07:31.309Z,24.10
2023-04-21T13:10:35.484Z,24.20
2023-04-21T13:13:39.005Z,24.30
2023-04-21T13:16:42.015Z,24.40
2023-04-21T13:19:44.971Z,24.50
2023-04-21T13:22:47.781Z,24.30
2023-04-21T13:25:52.779Z,24.10
2023-04-21T13:28:55.680Z,24.30
2023-04-21T13:31:58.484Z,24.30
2023-04-21T13:35:01.255Z,24.50
2023-04-21T13:38:04.049Z,24.50
2023-04-21T13:41:08.271Z,24.40
2023-04-21T13:44:11.074Z,24.50
2023-04-21T13:47:13.998Z,24.80
2023-04-21T13:50:16.784Z,24.80
2023-04-21T13:53:21.330Z,24.80
2023-04-21T13:56:25.848Z,24.90
2023-04-21T13:59:28.949Z,24.90
2023-04-21T14:02:31.944Z,25.00
2023-04-21T14:05:35.247Z,24.90
2023-04-21T14:08:38.096Z,25.00
2023-04-21T14:11:42.235Z,25.00
2023-04-21T14:14:45.134Z,24.90
2023-04-21T14:17:47.963Z,24.90
2023-04-21T14:20:50.871Z,25.00
2023-04-21T14:23:53.815Z,25.10
2023-04-21T14:26:58.056Z,25.20
2023-04-21T14:30:00.857Z,25.20
2023-04-21T14:33:03.766Z,25.10
2023-04-21T14:36:07.118Z,25.10
2023-04-21T14:39:10.189Z,24.90
2023-04-21T14:42:14.395Z,24.70
2023-04-21T14:45:17.261Z,24.70
2023-04-21T14:48:20.093Z,24.70
2023-04-21T14:51:22.907Z,24.70
2023-04-21T14:54:25.880Z,24.60
2023-04-21T14:57:30.022Z,24.60
2023-04-21T15:00:34.612Z,24.50
2023-04-21T15:03:38.178Z,24.50
2023-04-21T15:06:41.109Z,24.50
2023-04-21T15:09:45.758Z,24.40
2023-04-21T15:12:49.962Z,24.50
2023-04-21T15:15:52.824Z,24.40
2023-04-21T15:18:55.936Z,24.40
2023-04-21T15:21:59.003Z,24.40
2023-04-21T15:25:01.855Z,24.20
2023-04-21T15:28:07.135Z,24.20
2023-04-21T15:31:10.374Z,24.10
2023-04-21T15:34:13.277Z,23.90
2023-04-21T15:37:17.483Z,24.00
2023-04-21T15:40:20.337Z,24.00
2023-04-21T15:43:25.836Z,24.00
2023-04-21T15:46:28.875Z,24.00
2023-04-21T15:49:31.743Z,23.90
2023-04-21T15:52:37.077Z,23.90
2023-04-21T15:55:39.916Z,23.80
2023-04-21T15:58:44.261Z,23.70
2023-04-21T16:01:47.215Z,23.60
2023-04-21T16:04:50.205Z,23.50
2023-04-21T16:07:53.636Z,23.50
2023-04-21T16:10:57.162Z,23.40
2023-04-21T16:14:01.360Z,23.40
2023-04-21T16:17:04.684Z,23.50
2023-04-21T16:20:08.806Z,23.40
2023-04-21T16:23:11.649Z,23.20
2023-04-21T16:26:14.471Z,23.20
2023-04-21T16:29:19.732Z,23.20
2023-04-21T16:32:22.608Z,23.10
2023-04-21T16:35:25.584Z,23.10
2023-04-21T16:38:28.386Z,23.00
2023-04-21T16:41:31.300Z,23.10
2023-04-21T16:44:35.871Z,22.80
2023-04-21T16:47:42.101Z,22.90
2023-04-21T16:50:45.595Z,22.90
2023-04-21T16:53:48.403Z,22.90
2023-04-21T16:56:51.319Z,22.80
2023-04-21T16:59:55.549Z,22.80
2023-04-21T17:02:58.690Z,22.80
2023-04-21T17:06:04.502Z,22.60
2023-04-21T17:09:08.013Z,22.50
2023-04-21T17:12:10.833Z,22.50
2023-04-21T17:15:15.339Z,22.50
2023-04-21T17:18:18.359Z,22.50
2023-04-21T17:21:21.290Z,22.50
2023-04-21T17:24:24.177Z,22.40
2023-04-21T17:27:27.054Z,22.30
2023-04-21T17:30:31.302Z,22.30
2023-04-21T17:33:34.085Z,22.30
2023-04-21T17:36:39.368Z,22.10
2023-04-21T17:39:42.246Z,22.00
2023-04-21T17:42:45.244Z,21.90
2023-04-21T17:45:49.520Z,21.90
2023-04-21T17:48:52.322Z,21.90
2023-04-21T17:51:55.094Z,21.80
2023-04-21T17:54:57.892Z,21.70
2023-04-21T17:58:00.705Z,21.60
2023-04-21T18:01:04.860Z,21.50
2023-04-21T18:04:07.893Z,21.40
2023-04-21T18:07:10.986Z,21.30
2023-04-21T18:10:13.964Z,21.20
2023-04-21T18:13:16.817Z,21.20
2023-04-21T18:16:20.989Z,21.10
2023-04-21T18:19:24.276Z,21.00
2023-04-21T18:22:27.358Z,21.00
2023-04-21T18:25:41.297Z,20.90
2023-04-21T18:28:45.126Z,20.80
2023-04-21T18:31:49.420Z,20.70
2023-04-21T18:34:52.251Z,20.50
2023-04-21T18:37:55.193Z,20.30
2023-04-21T18:40:58.031Z,20.20
2023-04-21T18:44:00.801Z,20.20
2023-04-21T18:47:05.088Z,20.20
2023-04-21T18:50:09.439Z,20.20
2023-04-21T18:53:12.216Z,20.10
2023-04-21T18:56:15.152Z,20.10
2023-04-21T18:59:18.664Z,20.00
2023-04-21T19:02:23.015Z,19.90
2023-04-21T19:05:25.959Z,19.80
2023-04-21T19:08:41.442Z,19.80
2023-04-21T19:11:46.083Z,19.70
2023-04-21T19:14:49.608Z,19.50
2023-04-21T19:17:54.890Z,19.20
2023-04-21T19:20:57.741Z,19.20
2023-04-21T19:24:00.603Z,19.10
2023-04-21T19:27:05.405Z,19.20
2023-04-21T19:30:09.574Z,19.00
2023-04-21T19:33:13.796Z,18.70
2023-04-21T19:36:16.733Z,18.50
2023-04-21T19:39:19.541Z,18.40
2023-04-21T19:42:22.317Z,18.10
2023-04-21T19:45:25.447Z,18.10
2023-04-21T19:48:29.651Z,18.10
2023-04-21T19:51:32.698Z,18.10
2023-04-21T19:54:35.536Z,18.00
2023-04-21T19:57:38.588Z,18.10
2023-04-21T20:00:41.699Z,18.00
2023-04-21T20:03:47.739Z,18.10
2023-04-21T20:06:50.781Z,18.20
2023-04-21T20:09:53.563Z,18.00
2023-04-21T20:12:56.384Z,17.90
2023-04-21T20:15:59.229Z,18.00
2023-04-21T20:19:04.586Z,18.00
2023-04-21T20:22:07.964Z,18.00
2023-04-21T20:25:12.776Z,18.10
2023-04-21T20:28:16.467Z,18.00
2023-04-21T20:31:23.507Z,18.00
2023-04-21T20:34:27.788Z,18.00
2023-04-21T20:37:33.441Z,17.90
2023-04-21T20:40:36.414Z,18.00
2023-04-21T20:43:40.306Z,17.80
2023-04-21T20:46:43.200Z,17.70
2023-04-21T20:49:47.895Z,17.60
2023-04-21T20:52:50.985Z,17.60
2023-04-21T20:55:53.777Z,17.40
2023-04-21T20:58:56.635Z,17.30
2023-04-21T21:01:59.430Z,17.40
2023-04-21T21:05:04.171Z,17.30
2023-04-21T21:08:07.956Z,17.30
2023-04-21T21:11:11.349Z,17.30
2023-04-21T21:14:14.274Z,17.10
2023-04-21T21:17:17.146Z,17.10
2023-04-21T21:20:21.334Z,17.00
2023-04-21T21:23:24.097Z,17.00
2023-04-21T21:26:27.128Z,16.90
2023-04-21T21:29:30.274Z,16.90
2023-04-21T21:32:33.086Z,16.70
2023-04-21T21:35:37.232Z,16.70
2023-04-21T21:38:40.360Z,16.60
2023-04-21T21:41:43.135Z,16.60
2023-04-21T21:44:45.927Z,16.60
2023-04-21T21:47:48.746Z,16.60
2023-04-21T21:50:52.857Z,16.60
2023-04-21T21:53:55.734Z,16.50
2023-04-21T21:56:58.836Z,16.50
2023-04-21T22:00:02.128Z,16.40
2023-04-21T22:03:05.382Z,16.40
2023-04-21T22:06:09.723Z,16.40
2023-04-21T22:09:12.549Z,16.30
2023-04-21T22:12:15.668Z,16.10
2023-04-21T22:15:19.606Z,16.20
2023-04-21T22:18:22.372Z,16.10
2023-04-21T22:21:27.383Z,16.10
2023-04-21T22:24:30.163Z,16.00
2023-04-21T22:27:33.703Z,16.00
2023-04-21T22:30:36.517Z,16.00
2023-04-21T22:33:39.357Z,16.00
2023-04-21T22:36:43.494Z,16.00
2023-04-21T22:39:46.401Z,15.90
2023-04-21T22:42:49.207Z,15.70
2023-04-21T22:45:52.015Z,15.70
2023-04-21T22:48:57.083Z,15.60
2023-04-21T22:52:01.484Z,15.60
2023-04-21T22:55:05.197Z,15.60
2023-04-21T22:58:07.987Z,15.60
2023-04-21T23:01:10.923Z,15.50
2023-04-21T23:04:13.920Z,15.50
2023-04-21T23:07:18.185Z,15.40
2023-04-21T23:10:22.196Z,15.30
2023-04-21T23:13:25.353Z,15.20
2023-04-21T23:16:28.141Z,15.30
2023-04-21T23:19:30.923Z,15.40
2023-04-21T23:22:35.182Z,15.40
2023-04-21T23:25:37.932Z,15.20
2023-04-21T23:28:40.718Z,15.30
2023-04-21T23:31:43.625Z,15.30
2023-04-21T23:34:46.500Z,15.20
2023-04-21T23:37:50.631Z,15.00
2023-04-21T23:40:53.420Z,15.10
2023-04-21T23:43:56.193Z,15.10
2023-04-21T23:46:59.082Z,15.10
2023-04-21T23:50:01.828Z,14.90
2023-04-21T23:53:05.998Z,15.10
2023-04-21T23:56:09.014Z,15.10
2023-04-21T23:59:11.815Z,15.00
